Search for airport 
image banner adimage banner ad
image banner ad

SIBK - Sada Siderurgia Ltda Airport

Located in Várzea Da Palma, Brazil

ICAO - SIBK, IATA -

Data provided by Airmate  

General information

Coordinates: S31°19'40" W54°8'9"
Elevation is 728 feet MSL.
Magnetic variation is -14° East
View others Airports in Rio Grande do Sul

Operational data

Open for public use
Current time UTC:
Current local time:
Weather at : SBBG - Comandante Gustavo Kraemer ( 7 km )
METAR: SBBG 011115Z 06012KT CAVOK 21/14 Q1017
TAF: TAF SBBG 010300Z 0106/0118 16008KT CAVOK TN18/0108Z TX27/0117Z BECMG 0108/0110 9999 BKN012 BECMG 0113/0115 14008KT CAVOK RMK PEO
View NOTAMs / SUP AIP / TFR affecting this airport [VIEW]
Communications frequencies: [VIEW]

Runways:

RWY identifierQFULength (ft)Width (ft)SurfaceLDA (ft)
11187098GRASS
29187098GRASS

Airport contact information

Address: Várzea Da Palma Brazil

Satellite view of SIBK